Time;durP1;ratioP1;P1;durP2;ratioP2;P2;SDS_P1;SDS_P2;PMS_P1;PMS_P2;Temp;Humidity;BMP_temperature;BMP_pressure;BME280_temperature;BME280_humidity;BME280_pressure;Samples;Min_cycle;Max_cycle;Signal;HPM_P1;HPM_P2
2022/05/06 00:01:49;;;;;;;9.65;5.40;;;;;;;7.60;nan;102394.38;5058707;28;20017;-49
2022/05/06 00:04:14;;;;;;;6.13;5.53;;;;;;;7.55;nan;102403.78;5058051;28;20035;-50
2022/05/06 00:06:40;;;;;;;10.77;5.10;;;;;;;7.50;nan;102400.81;5058868;28;20036;-47
2022/05/06 00:09:06;;;;;;;7.88;5.03;;;;;;;7.47;nan;102398.53;5059994;28;20112;-49
2022/05/06 00:11:33;;;;;;;10.23;6.15;;;;;;;7.42;nan;102400.94;5051474;28;20517;-49
2022/05/06 00:13:59;;;;;;;6.88;5.30;;;;;;;7.38;nan;102405.00;5057114;28;20115;-50
2022/05/06 00:16:25;;;;;;;9.43;5.97;;;;;;;7.34;nan;102392.22;5051592;28;20504;-48
2022/05/06 00:18:52;;;;;;;7.53;5.15;;;;;;;7.29;nan;102400.78;5052355;28;20053;-50
2022/05/06 00:21:18;;;;;;;7.63;5.03;;;;;;;7.24;nan;102395.19;5060023;28;20032;-49
2022/05/06 00:23:44;;;;;;;9.60;5.90;;;;;;;7.22;nan;102395.38;5057498;28;20024;-47
2022/05/06 00:26:10;;;;;;;9.70;5.78;;;;;;;7.20;nan;102399.22;5057117;28;20028;-54
2022/05/06 00:28:37;;;;;;;9.15;5.80;;;;;;;7.16;nan;102393.41;5050803;28;20537;-48
2022/05/06 00:31:04;;;;;;;8.50;4.57;;;;;;;7.13;nan;102388.47;5056616;28;20115;-53
2022/05/06 00:33:30;;;;;;;7.30;3.70;;;;;;;7.08;nan;102395.38;5052118;28;20575;-47
2022/05/06 00:36:00;;;;;;;7.28;3.60;;;;;;;7.01;nan;102392.63;5058451;28;20272;-48
2022/05/06 00:38:27;;;;;;;5.95;3.30;;;;;;;6.98;nan;102392.97;5059734;28;20028;-50
2022/05/06 00:40:53;;;;;;;7.07;3.78;;;;;;;6.94;nan;102394.34;5056157;28;20025;-49
2022/05/06 00:43:20;;;;;;;9.43;4.47;;;;;;;6.90;nan;102393.06;5054304;28;20036;-48
2022/05/06 00:45:54;;;;;;;9.45;3.45;;;;;;;6.83;nan;102393.00;5061231;28;20181;-47
2022/05/06 00:48:26;;;;;;;8.02;3.97;;;;;;;6.78;nan;102395.34;5059966;28;20031;-49
2022/05/06 00:50:53;;;;;;;7.78;4.65;;;;;;;6.77;nan;102391.03;5059711;28;20032;-49
2022/05/06 00:53:20;;;;;;;7.18;5.30;;;;;;;6.73;nan;102397.75;5059851;28;20571;-49
2022/05/06 00:55:46;;;;;;;7.05;5.30;;;;;;;6.68;nan;102394.81;5055411;28;20140;-48
2022/05/06 00:58:14;;;;;;;8.23;5.47;;;;;;;6.63;nan;102395.34;5063957;28;20099;-47
2022/05/06 01:00:39;;;;;;;10.35;5.38;;;;;;;6.61;nan;102392.03;5058342;28;20238;-47
2022/05/06 01:03:05;;;;;;;10.20;6.30;;;;;;;6.58;nan;102396.91;5059901;28;20416;-48
2022/05/06 01:05:30;;;;;;;9.07;6.22;;;;;;;6.55;nan;102397.25;5056347;28;20025;-48
2022/05/06 01:07:58;;;;;;;9.93;5.90;;;;;;;6.54;nan;102400.94;5066021;28;20027;-50
2022/05/06 01:10:24;;;;;;;9.32;5.70;;;;;;;6.50;nan;102387.16;5059374;28;20033;-53
2022/05/06 01:12:50;;;;;;;9.77;6.22;;;;;;;6.48;nan;102396.34;5054884;28;20039;-47
2022/05/06 01:15:28;;;;;;;11.23;6.18;;;;;;;6.42;nan;102400.53;5060761;28;20036;-47
2022/05/06 01:17:56;;;;;;;9.07;5.90;;;;;;;6.40;nan;102393.75;5058402;28;20029;-47
2022/05/06 01:20:23;;;;;;;7.97;5.63;;;;;;;6.36;nan;102403.94;5062176;28;20036;-54
2022/05/06 01:22:51;;;;;;;8.45;5.97;;;;;;;6.31;nan;102404.47;5056860;28;20033;-48
2022/05/06 01:25:18;;;;;;;10.77;6.20;;;;;;;6.28;nan;102399.50;5064378;28;20043;-53
2022/05/06 01:28:00;;;;;;;6.25;5.28;;;;;;;6.19;nan;102405.91;5057915;28;20028;-50
2022/05/06 01:30:47;;;;;;;9.95;5.95;;;;;;;6.14;nan;102405.59;5058501;28;20376;-49
2022/05/06 01:33:21;;;;;;;9.38;6.22;;;;;;;6.16;nan;102411.56;5062256;28;20036;-47
2022/05/06 01:35:56;;;;;;;9.10;6.32;;;;;;;6.11;nan;102408.63;5058053;28;20028;-49
2022/05/06 01:38:40;;;;;;;9.35;6.15;;;;;;;6.10;nan;102406.13;5063111;28;20024;-47
2022/05/06 01:41:21;;;;;;;9.25;6.43;;;;;;;6.02;nan;102420.31;5057700;28;20520;-52
2022/05/06 01:43:53;;;;;;;8.73;6.22;;;;;;;6.01;nan;102413.34;5061069;28;20095;-47
2022/05/06 01:46:21;;;;;;;8.90;5.93;;;;;;;6.01;nan;102418.66;5057182;28;20558;-50
2022/05/06 01:48:48;;;;;;;11.70;5.95;;;;;;;5.97;nan;102423.53;5057910;28;20159;-48
2022/05/06 01:51:15;;;;;;;10.63;6.75;;;;;;;5.93;nan;102422.22;5057872;28;20071;-47
2022/05/06 01:53:42;;;;;;;11.93;6.63;;;;;;;5.90;nan;102419.91;5060174;28;20764;-51
2022/05/06 01:56:08;;;;;;;8.82;5.80;;;;;;;5.88;nan;102423.72;5059343;28;20043;-50
2022/05/06 01:58:34;;;;;;;8.73;5.57;;;;;;;5.84;nan;102422.41;5058148;28;20024;-47
2022/05/06 02:01:00;;;;;;;13.45;5.88;;;;;;;5.80;nan;102426.44;5051938;28;20123;-48
2022/05/06 02:06:09;;;;;;;10.23;5.22;;;;;;;5.65;nan;102424.50;5055966;28;20448;-51
2022/05/06 02:08:35;;;;;;;10.07;5.93;;;;;;;5.62;nan;102422.22;5058853;28;20041;-49
2022/05/06 02:11:01;;;;;;;11.57;5.43;;;;;;;5.59;nan;102411.94;5052547;28;20046;-50
2022/05/06 02:13:27;;;;;;;7.72;5.57;;;;;;;5.57;nan;102416.59;5055156;28;20064;-51
2022/05/06 02:15:53;;;;;;;8.13;6.25;;;;;;;5.55;nan;102415.91;5054204;28;20105;-50
2022/05/06 02:18:18;;;;;;;7.47;5.43;;;;;;;5.52;nan;102412.78;5054699;28;20025;-47
2022/05/06 02:20:44;;;;;;;10.10;5.57;;;;;;;5.47;nan;102413.31;5054787;28;20024;-49
2022/05/06 02:23:09;;;;;;;12.05;5.53;;;;;;;5.45;nan;102412.66;5054655;28;20471;-49
2022/05/06 02:25:36;;;;;;;12.80;6.60;;;;;;;5.43;nan;102412.00;5057481;28;20028;-53
2022/05/06 02:28:02;;;;;;;11.07;6.70;;;;;;;5.40;nan;102412.34;5053029;28;20032;-52
2022/05/06 02:33:15;;;;;;;7.20;5.63;;;;;;;5.33;nan;102425.50;5053987;28;20039;-50
2022/05/06 02:35:43;;;;;;;10.63;6.10;;;;;;;5.31;nan;102426.66;5054752;28;20311;-49
2022/05/06 02:38:10;;;;;;;10.25;6.28;;;;;;;5.28;nan;102427.00;5054247;28;20034;-49
2022/05/06 02:40:36;;;;;;;9.48;6.65;;;;;;;5.27;nan;102430.66;5055287;28;20033;-53
2022/05/06 02:43:03;;;;;;;11.50;6.75;;;;;;;5.24;nan;102431.84;5056855;28;20032;-51
2022/05/06 02:45:28;;;;;;;8.48;6.28;;;;;;;5.23;nan;102432.03;5056615;28;20029;-52
2022/05/06 02:47:54;;;;;;;9.45;6.57;;;;;;;5.19;nan;102428.03;5052988;28;20032;-47
2022/05/06 02:50:20;;;;;;;9.18;6.47;;;;;;;5.16;nan;102423.88;5057779;28;20025;-48
2022/05/06 02:52:45;;;;;;;9.30;6.03;;;;;;;5.13;nan;102422.41;5053083;28;20029;-50
2022/05/06 02:55:11;;;;;;;10.38;6.90;;;;;;;5.13;nan;102419.75;5049902;28;20679;-47
2022/05/06 02:57:37;;;;;;;8.93;6.13;;;;;;;5.10;nan;102422.75;5058829;28;20043;-52
2022/05/06 03:00:04;;;;;;;7.05;5.43;;;;;;;5.06;nan;102423.28;5050664;28;20062;-47
2022/05/06 03:02:29;;;;;;;8.13;5.63;;;;;;;5.02;nan;102421.94;5057788;28;20032;-50
2022/05/06 03:04:55;;;;;;;7.78;5.55;;;;;;;4.98;nan;102432.06;5057295;28;20028;-50
2022/05/06 03:07:22;;;;;;;8.40;5.47;;;;;;;4.96;nan;102422.63;5053705;28;20125;-50
2022/05/06 03:09:48;;;;;;;9.52;5.82;;;;;;;4.93;nan;102434.41;5054666;28;20079;-52
2022/05/06 03:12:16;;;;;;;13.48;7.15;;;;;;;4.90;nan;102437.41;5056625;28;20116;-52
2022/05/06 03:14:42;;;;;;;11.63;6.93;;;;;;;4.89;nan;102430.44;5052528;28;20029;-52
2022/05/06 03:17:08;;;;;;;16.92;6.97;;;;;;;4.88;nan;102431.44;5052495;28;20028;-51
2022/05/06 03:19:33;;;;;;;15.10;8.05;;;;;;;4.88;nan;102430.63;5053138;28;20517;-50
2022/05/06 03:21:59;;;;;;;13.80;8.05;;;;;;;4.87;nan;102440.41;5053666;28;20078;-50
2022/05/06 03:24:24;;;;;;;14.18;6.88;;;;;;;4.86;nan;102438.75;5054685;28;20032;-50
2022/05/06 03:26:50;;;;;;;15.82;6.88;;;;;;;4.83;nan;102445.22;5055617;28;20040;-51
2022/05/06 03:29:15;;;;;;;19.13;6.72;;;;;;;4.84;nan;102446.03;5053683;28;20025;-51
2022/05/06 03:31:41;;;;;;;19.77;6.72;;;;;;;4.84;nan;102449.53;5052237;28;20055;-50
2022/05/06 03:34:07;;;;;;;12.25;6.28;;;;;;;4.85;nan;102453.88;5051580;28;20423;-50
2022/05/06 03:36:33;;;;;;;20.45;8.25;;;;;;;4.89;nan;102453.53;5053477;28;20028;-52
2022/05/06 03:39:03;;;;;;;16.15;8.57;;;;;;;4.92;nan;102447.88;5057666;28;20517;-51
2022/05/06 03:41:29;;;;;;;20.13;10.40;;;;;;;4.96;nan;102443.88;5054422;28;20033;-49
2022/05/06 03:43:54;;;;;;;17.08;9.35;;;;;;;5.01;nan;102454.81;5050688;28;20036;-50
2022/05/06 03:46:20;;;;;;;17.17;8.90;;;;;;;5.03;nan;102451.00;5055991;28;20109;-48
2022/05/06 03:48:45;;;;;;;26.27;10.43;;;;;;;5.04;nan;102457.97;5052798;28;20082;-47
2022/05/06 03:51:20;;;;;;;22.35;11.23;;;;;;;5.05;nan;102456.97;5053009;28;21035;-49
2022/05/06 03:53:46;;;;;;;;;;;;;;;4.94;nan;102464.47;5052358;28;20055;-47
2022/05/06 03:56:12;;;;;;;21.35;10.80;;;;;;;5.04;nan;102457.16;5051323;28;19916;-50
2022/05/06 03:58:37;;;;;;;21.10;13.05;;;;;;;5.06;nan;102466.59;5054479;28;20134;-47
2022/05/06 04:01:04;;;;;;;23.77;13.07;;;;;;;5.09;nan;102460.13;5049649;28;20766;-49
2022/05/06 04:03:31;;;;;;;19.70;11.85;;;;;;;5.12;nan;102459.78;5050255;28;21742;-48
2022/05/06 04:05:57;;;;;;;20.98;12.13;;;;;;;5.14;nan;102463.91;5047664;28;20544;-48
2022/05/06 04:08:23;;;;;;;23.52;12.05;;;;;;;5.16;nan;102461.91;5052227;28;20200;-52
2022/05/06 04:10:48;;;;;;;20.15;12.15;;;;;;;5.21;nan;102465.91;5053998;28;20028;-50
2022/05/06 04:13:16;;;;;;;19.38;12.52;;;;;;;5.23;nan;102463.91;5049699;28;20093;-50
2022/05/06 04:15:42;;;;;;;20.13;11.15;;;;;;;5.29;nan;102463.22;5047333;28;20056;-50
2022/05/06 04:18:08;;;;;;;15.45;10.52;;;;;;;5.33;nan;102467.19;5047087;28;20040;-49
2022/05/06 04:23:30;;;;;;;18.30;11.43;;;;;;;5.43;nan;102470.47;5053538;28;20055;-47
2022/05/06 04:25:56;;;;;;;20.98;12.02;;;;;;;5.49;nan;102483.06;5051776;28;20050;-49
2022/05/06 04:28:23;;;;;;;17.15;10.93;;;;;;;5.56;nan;102481.38;5052489;28;20028;-48
2022/05/06 04:30:50;;;;;;;17.92;10.57;;;;;;;5.64;nan;102483.19;5052315;28;20021;-47
2022/05/06 04:33:16;;;;;;;18.77;10.73;;;;;;;5.73;nan;102488.28;5051023;28;20021;-49
2022/05/06 04:35:42;;;;;;;16.65;10.65;;;;;;;5.78;nan;102495.75;5051458;28;20455;-51
2022/05/06 04:38:08;;;;;;;12.95;9.57;;;;;;;5.86;nan;102490.38;5052698;28;20041;-50
2022/05/06 04:40:34;;;;;;;14.00;10.13;;;;;;;5.97;nan;102491.88;5054214;28;20563;-49
2022/05/06 04:43:03;;;;;;;13.50;10.52;;;;;;;6.09;nan;102495.78;5051459;28;20114;-47
2022/05/06 04:45:29;;;;;;;14.30;10.65;;;;;;;6.19;nan;102499.06;5052018;28;20032;-50
2022/05/06 04:47:55;;;;;;;14.68;11.00;;;;;;;6.31;nan;102504.81;5048876;28;20036;-53
2022/05/06 04:50:21;;;;;;;14.32;10.57;;;;;;;6.44;nan;102501.53;5054378;28;20037;-53
2022/05/06 04:52:47;;;;;;;13.65;9.52;;;;;;;6.57;nan;102504.44;5051925;28;20032;-54
2022/05/06 04:55:13;;;;;;;13.80;10.20;;;;;;;6.71;nan;102500.16;5036236;28;20715;-47
2022/05/06 04:57:38;;;;;;;12.80;9.10;;;;;;;6.84;nan;102495.06;5052498;28;20085;-50
2022/05/06 05:00:04;;;;;;;14.82;10.13;;;;;;;6.96;nan;102497.09;5052244;28;20474;-48
2022/05/06 05:02:30;;;;;;;15.65;10.65;;;;;;;7.10;nan;102494.63;5048577;28;20039;-50
2022/05/06 05:04:58;;;;;;;14.23;9.52;;;;;;;7.21;nan;102495.03;5053695;28;20025;-49
2022/05/06 05:07:24;;;;;;;20.35;11.18;;;;;;;7.35;nan;102498.69;5050128;28;20130;-51
2022/05/06 05:09:50;;;;;;;18.10;12.38;;;;;;;7.47;nan;102499.88;5053464;28;20024;-48
2022/05/06 05:12:16;;;;;;;16.67;11.27;;;;;;;7.60;nan;102495.75;5051906;28;20037;-49
2022/05/06 05:14:44;;;;;;;20.67;11.30;;;;;;;7.72;nan;102495.09;5051692;28;20085;-48
2022/05/06 05:17:11;;;;;;;16.00;11.50;;;;;;;7.87;nan;102503.03;5049675;28;20032;-51
2022/05/06 05:19:37;;;;;;;23.33;11.95;;;;;;;8.02;nan;102506.50;5049044;28;20086;-47
2022/05/06 05:22:04;;;;;;;18.15;11.18;;;;;;;8.15;nan;102509.34;5051237;28;20016;-50
2022/05/06 05:24:29;;;;;;;19.40;12.27;;;;;;;8.28;nan;102511.34;5051838;28;20594;-53
2022/05/06 05:26:55;;;;;;;22.23;11.90;;;;;;;8.40;nan;102517.84;5051773;28;20024;-52
2022/05/06 05:29:21;;;;;;;26.13;12.00;;;;;;;8.55;nan;102515.09;5053701;28;20391;-52
2022/05/06 05:31:47;;;;;;;18.77;11.95;;;;;;;8.66;nan;102513.78;5056988;28;20035;-49
2022/05/06 05:34:12;;;;;;;15.30;11.43;;;;;;;8.78;nan;102518.38;5058933;28;20094;-48
2022/05/06 05:36:38;;;;;;;18.58;11.57;;;;;;;8.86;nan;102514.75;5054945;28;20072;-50
2022/05/06 05:39:03;;;;;;;17.10;11.13;;;;;;;9.01;nan;102512.84;5062445;28;20028;-51
2022/05/06 05:41:29;;;;;;;16.48;11.05;;;;;;;9.15;nan;102516.41;5061617;28;20024;-52
2022/05/06 05:49:22;;;;;;;14.80;10.00;;;;;;;9.49;nan;102518.25;5059794;28;20078;-52
2022/05/06 05:51:48;;;;;;;22.15;10.82;;;;;;;9.68;nan;102520.22;5059770;28;20025;-53
2022/05/06 05:54:15;;;;;;;19.58;10.48;;;;;;;9.87;nan;102521.31;5056307;28;20083;-48
2022/05/06 05:56:41;;;;;;;23.98;10.48;;;;;;;10.05;nan;102522.63;5057697;28;20205;-48
2022/05/06 05:59:07;;;;;;;20.13;10.18;;;;;;;10.20;nan;102513.41;5056548;28;20470;-48
2022/05/06 06:01:33;;;;;;;25.40;10.43;;;;;;;10.37;nan;102513.88;5056214;28;20020;-52
2022/05/06 06:03:58;;;;;;;15.60;8.95;;;;;;;10.51;nan;102515.56;5054174;28;20670;-48
2022/05/06 06:06:24;;;;;;;14.85;7.72;;;;;;;10.65;nan;102523.63;5063225;28;20485;-50
2022/05/06 06:08:49;;;;;;;14.73;7.50;;;;;;;10.80;nan;102522.38;5049869;28;20045;-51
2022/05/06 06:11:15;;;;;;;13.75;7.13;;;;;;;10.96;nan;102523.84;5059215;28;20021;-50
2022/05/06 06:13:41;;;;;;;10.32;7.00;;;;;;;11.14;nan;102515.97;5056497;28;20061;-48
2022/05/06 06:16:06;;;;;;;11.02;6.78;;;;;;;11.34;nan;102521.31;5053981;28;20124;-50
2022/05/06 06:18:32;;;;;;;13.82;6.90;;;;;;;11.48;nan;102520.22;5065943;28;20059;-51
2022/05/06 06:20:57;;;;;;;15.10;7.55;;;;;;;11.66;nan;102524.91;5056047;28;20036;-49
2022/05/06 06:23:24;;;;;;;13.30;7.85;;;;;;;11.74;nan;102527.38;5055194;28;20032;-50
2022/05/06 06:25:49;;;;;;;15.30;7.63;;;;;;;11.89;nan;102513.72;5056358;28;20055;-53
2022/05/06 06:28:15;;;;;;;13.13;7.07;;;;;;;12.08;nan;102520.03;5059049;28;20028;-51
2022/05/06 06:30:41;;;;;;;13.32;6.70;;;;;;;12.21;nan;102524.47;5060493;28;20028;-50
2022/05/06 06:33:08;;;;;;;13.38;7.32;;;;;;;12.31;nan;102528.34;5052375;28;20029;-49
2022/05/06 06:35:33;;;;;;;12.50;7.32;;;;;;;12.48;nan;102527.84;5055756;28;20440;-49
2022/05/06 06:38:00;;;;;;;11.55;6.45;;;;;;;12.62;nan;102527.53;5054500;28;20664;-48
2022/05/06 06:40:26;;;;;;;12.82;7.03;;;;;;;12.78;nan;102528.88;5055853;28;20028;-52
2022/05/06 06:42:51;;;;;;;13.57;7.53;;;;;;;12.85;nan;102526.13;5052923;28;20035;-52
2022/05/06 06:45:17;;;;;;;13.38;7.32;;;;;;;12.94;nan;102532.88;5058072;28;20035;-48
2022/05/06 06:47:43;;;;;;;13.80;7.40;;;;;;;13.10;nan;102531.47;5056155;28;20028;-48
2022/05/06 06:50:09;;;;;;;16.13;7.80;;;;;;;13.24;nan;102530.34;5056675;28;20025;-48
2022/05/06 06:52:35;;;;;;;14.07;7.50;;;;;;;13.30;nan;102526.78;5056448;28;20029;-50
2022/05/06 06:55:01;;;;;;;15.90;7.82;;;;;;;13.44;nan;102530.13;5054512;28;20025;-48
2022/05/06 06:57:30;;;;;;;15.68;7.75;;;;;;;13.60;nan;102518.75;5054730;28;20519;-52
2022/05/06 06:59:55;;;;;;;15.77;7.72;;;;;;;13.75;nan;102521.91;5055445;28;20082;-53
2022/05/06 07:02:21;;;;;;;12.80;7.28;;;;;;;13.94;nan;102522.69;5057482;28;20441;-53
2022/05/06 07:04:47;;;;;;;14.30;8.10;;;;;;;14.04;nan;102522.16;5054253;28;20029;-54
2022/05/06 07:12:40;;;;;;;14.80;8.10;;;;;;;14.39;nan;102523.13;5060687;28;20677;-52
2022/05/06 07:15:06;;;;;;;17.52;8.88;;;;;;;14.36;nan;102528.13;5056134;28;20033;-52
2022/05/06 07:17:32;;;;;;;14.38;8.27;;;;;;;14.43;nan;102527.03;5055255;28;20108;-49
2022/05/06 07:19:57;;;;;;;17.10;7.68;;;;;;;14.50;nan;102532.31;5053738;28;20394;-53
2022/05/06 07:22:23;;;;;;;15.88;8.30;;;;;;;14.49;nan;102525.28;5056852;28;20130;-48
2022/05/06 07:24:48;;;;;;;14.77;9.02;;;;;;;14.57;nan;102522.25;5057634;28;20031;-54
2022/05/06 07:27:14;;;;;;;14.57;7.80;;;;;;;14.77;nan;102538.94;5054853;28;20635;-48
2022/05/06 07:29:39;;;;;;;15.27;8.18;;;;;;;14.91;nan;102530.63;5059033;28;20035;-49
2022/05/06 07:32:06;;;;;;;15.13;8.32;;;;;;;15.12;nan;102538.16;5060748;28;20039;-49
2022/05/06 07:34:31;;;;;;;17.63;7.97;;;;;;;15.36;nan;102536.25;5061210;28;20066;-48
2022/05/06 07:36:57;;;;;;;17.15;8.57;;;;;;;15.57;nan;102538.34;5054850;28;20067;-51
2022/05/06 07:39:23;;;;;;;14.35;8.15;;;;;;;15.73;nan;102539.50;5057567;28;20494;-50
2022/05/06 07:41:48;;;;;;;15.63;8.07;;;;;;;15.90;nan;102540.41;5058581;28;20025;-53
2022/05/06 07:44:14;;;;;;;16.17;7.22;;;;;;;16.02;nan;102530.38;5056744;28;20025;-48
2022/05/06 07:46:40;;;;;;;14.60;7.45;;;;;;;16.19;nan;102526.91;5058077;28;20074;-51
2022/05/06 07:49:07;;;;;;;17.77;8.20;;;;;;;16.33;nan;102530.94;5054071;28;20449;-49
2022/05/06 07:51:33;;;;;;;13.95;6.88;;;;;;;16.43;nan;102522.19;5058024;28;20127;-50
2022/05/06 07:53:58;;;;;;;17.98;8.38;;;;;;;16.55;nan;102526.47;5057644;28;20119;-48
2022/05/06 07:56:26;;;;;;;15.82;8.65;;;;;;;16.72;nan;102531.09;5054991;28;20446;-55
2022/05/06 07:58:54;;;;;;;13.07;7.05;;;;;;;16.86;nan;102526.97;5057352;28;20025;-49
2022/05/06 08:04:32;;;;;;;16.52;7.43;;;;;;;16.95;nan;102528.22;5058312;28;20482;-50
2022/05/06 08:06:51;;;;;;;17.00;6.68;;;;;;;17.00;nan;102533.69;5053796;28;20035;-47
2022/05/06 08:09:16;;;;;;;10.07;6.53;;;;;;;17.13;nan;102538.78;5052560;28;20025;-48
2022/05/06 08:11:42;;;;;;;13.38;6.95;;;;;;;17.12;nan;102534.44;5058136;28;20425;-48
2022/05/06 08:14:07;;;;;;;14.00;6.97;;;;;;;17.32;nan;102533.91;5053749;28;20426;-48
2022/05/06 08:16:33;;;;;;;15.50;6.65;;;;;;;17.21;nan;102537.53;5059593;28;20033;-46
2022/05/06 08:18:58;;;;;;;14.65;7.40;;;;;;;17.32;nan;102539.31;5056699;28;20065;-48
2022/05/06 08:21:24;;;;;;;12.73;6.95;;;;;;;17.28;nan;102537.38;5053381;28;20036;-48
2022/05/06 08:23:49;;;;;;;14.32;7.10;;;;;;;17.37;nan;102546.69;5055628;28;20043;-48
2022/05/06 08:26:15;;;;;;;13.93;7.05;;;;;;;17.41;nan;102534.28;5060872;28;20032;-47
2022/05/06 08:28:40;;;;;;;17.58;7.68;;;;;;;17.59;nan;102538.59;5037265;28;20500;-47
2022/05/06 08:31:06;;;;;;;14.60;7.95;;;;;;;17.95;nan;102540.69;5054036;28;20025;-47
2022/05/06 08:33:32;;;;;;;12.45;6.85;;;;;;;17.79;nan;102530.75;5053790;28;20037;-49
2022/05/06 08:35:57;;;;;;;17.45;7.20;;;;;;;17.52;nan;102538.78;5052665;28;20118;-47
2022/05/06 08:38:23;;;;;;;16.67;8.63;;;;;;;17.52;nan;102538.78;5053382;28;20031;-47
2022/05/06 08:40:49;;;;;;;17.13;8.35;;;;;;;17.47;nan;102542.25;5058024;28;20036;-46
2022/05/06 08:43:15;;;;;;;17.23;7.03;;;;;;;17.31;nan;102536.88;5057471;28;20017;-48
2022/05/06 08:51:12;;;;;;;11.30;6.35;;;;;;;16.69;nan;102539.69;5056623;28;20048;-47
2022/05/06 08:53:39;;;;;;;12.68;6.85;;;;;;;17.20;nan;102544.00;5055530;28;20611;-49
2022/05/06 08:56:05;;;;;;;11.00;6.82;;;;;;;17.71;nan;102545.56;5055758;28;20032;-46
2022/05/06 08:58:34;;;;;;;11.63;6.93;;;;;;;17.97;nan;102543.16;5054977;28;20470;-48
2022/05/06 09:01:08;;;;;;;13.55;7.20;;;;;;;17.88;nan;102547.38;5051638;28;20043;-49
2022/05/06 09:03:37;;;;;;;12.50;7.45;;;;;;;17.85;nan;102542.47;5056161;28;20061;-47
2022/05/06 09:06:03;;;;;;;10.82;6.65;;;;;;;17.98;nan;102542.09;5057981;28;20330;-47
2022/05/06 09:08:42;;;;;;;8.82;4.70;;;;;;;18.16;nan;102541.75;5061578;28;20550;-48
2022/05/06 09:11:08;;;;;;;11.85;5.13;;;;;;;18.20;nan;102545.59;5058769;28;20800;-48
2022/05/06 09:13:36;;;;;;;10.15;5.57;;;;;;;18.36;nan;102528.38;5056897;28;20100;-47
2022/05/06 09:19:11;;;;;;;10.10;6.32;;;;;;;18.20;nan;102533.91;5061290;28;20043;-47
2022/05/06 09:21:38;;;;;;;12.27;5.15;;;;;;;18.28;nan;102528.84;5059093;28;20024;-48
2022/05/06 09:24:18;;;;;;;9.75;5.50;;;;;;;18.03;nan;102531.28;5055973;28;20497;-47
2022/05/06 09:27:03;;;;;;;6.80;5.03;;;;;;;18.01;nan;102536.16;5062080;28;20029;-47
2022/05/06 09:29:36;;;;;;;11.10;5.40;;;;;;;17.80;nan;102541.34;5057957;28;20029;-47
2022/05/06 09:32:24;;;;;;;10.70;5.18;;;;;;;17.61;nan;102542.72;5047947;28;20032;-48
2022/05/06 09:34:53;;;;;;;14.32;6.57;;;;;;;17.97;nan;102532.31;5060901;28;20461;-47
2022/05/06 09:37:34;;;;;;;7.80;5.13;;;;;;;18.34;nan;102535.16;5063057;28;20564;-48
2022/05/06 09:40:07;;;;;;;8.38;5.07;;;;;;;18.88;nan;102533.19;5054991;28;20521;-47
2022/05/06 09:42:33;;;;;;;10.60;4.88;;;;;;;18.95;nan;102530.25;5058684;28;20501;-48
2022/05/06 09:45:00;;;;;;;7.00;5.10;;;;;;;18.82;nan;102523.34;5063988;28;20131;-47
2022/05/06 09:47:25;;;;;;;9.60;4.60;;;;;;;18.45;nan;102522.47;5056970;28;20035;-46
2022/05/06 09:49:52;;;;;;;7.55;4.30;;;;;;;18.48;nan;102525.50;5061151;28;20108;-47
2022/05/06 09:52:18;;;;;;;9.35;5.00;;;;;;;18.28;nan;102523.41;5058512;28;20028;-48
2022/05/06 09:54:46;;;;;;;7.72;4.70;;;;;;;18.32;nan;102527.28;5063220;28;20033;-48
2022/05/06 09:57:14;;;;;;;7.13;4.50;;;;;;;18.21;nan;102532.84;5056703;28;20513;-47
2022/05/06 09:59:40;;;;;;;10.45;4.63;;;;;;;18.20;nan;102523.88;5057769;28;20028;-48
2022/05/06 10:02:08;;;;;;;8.77;4.00;;;;;;;18.60;nan;102526.16;5056801;28;20494;-49
2022/05/06 10:04:35;;;;;;;5.97;4.25;;;;;;;18.95;nan;102519.38;5058655;28;20035;-49
2022/05/06 10:07:01;;;;;;;8.57;4.43;;;;;;;18.93;nan;102516.13;5056001;28;20154;-47
2022/05/06 10:09:32;;;;;;;8.23;3.70;;;;;;;18.85;nan;102520.16;5061276;28;20039;-46
2022/05/06 10:12:04;;;;;;;12.95;4.72;;;;;;;18.41;nan;102517.56;5055817;28;20717;-47
2022/05/06 10:14:31;;;;;;;7.22;4.05;;;;;;;18.28;nan;102515.28;5051937;28;20029;-48
2022/05/06 10:16:56;;;;;;;5.32;3.85;;;;;;;18.45;nan;102508.91;5059449;28;20566;-48
2022/05/06 10:19:45;;;;;;;5.90;3.30;;;;;;;18.53;nan;102508.44;5058562;28;20108;-48
2022/05/06 10:22:11;;;;;;;6.18;3.67;;;;;;;18.91;nan;102512.84;5053611;28;20029;-47
2022/05/06 10:24:49;;;;;;;4.65;3.55;;;;;;;18.84;nan;102506.81;5057673;28;20230;-50
2022/05/06 10:32:25;;;;;;;6.07;3.53;;;;;;;18.48;nan;102506.50;5059781;28;20036;-48
2022/05/06 10:33:13;;;;;;;5.78;3.55;;;;;;;18.54;nan;102502.75;5052883;28;20397;-47
2022/05/06 10:35:41;;;;;;;8.68;3.25;;;;;;;18.86;nan;102502.78;5056063;28;20120;-46
2022/05/06 10:38:24;;;;;;;5.15;2.78;;;;;;;18.95;nan;102501.19;5055503;28;20047;-47
2022/05/06 10:40:57;;;;;;;4.68;2.72;;;;;;;19.17;nan;102501.03;5056836;28;20065;-50
2022/05/06 10:43:40;;;;;;;3.90;2.33;;;;;;;18.83;nan;102497.03;5058493;28;20425;-48
2022/05/06 10:46:09;;;;;;;2.38;1.90;;;;;;;18.28;nan;102492.75;5061782;28;20064;-47
2022/05/06 10:48:35;;;;;;;6.47;2.65;;;;;;;18.35;nan;102487.94;5056793;28;20099;-46
2022/05/06 10:51:19;;;;;;;4.38;2.55;;;;;;;18.71;nan;102487.19;5058768;28;20018;-47
2022/05/06 10:53:45;;;;;;;3.70;2.75;;;;;;;19.24;nan;102489.97;5055135;28;20070;-48
2022/05/06 10:56:11;;;;;;;6.05;2.83;;;;;;;19.26;nan;102488.59;5054855;28;20033;-47
2022/05/06 10:58:36;;;;;;;7.95;3.10;;;;;;;18.71;nan;102491.78;5057052;28;20082;-48
2022/05/06 11:01:02;;;;;;;4.88;2.42;;;;;;;18.42;nan;102489.34;5059487;28;20482;-47
2022/05/06 11:03:27;;;;;;;3.85;2.80;;;;;;;18.07;nan;102489.03;5058885;28;20032;-46
2022/05/06 11:05:53;;;;;;;4.85;2.60;;;;;;;18.23;nan;102487.28;5058960;28;20470;-50
2022/05/06 11:08:21;;;;;;;2.63;2.00;;;;;;;18.39;nan;102489.88;5062410;28;20128;-48
2022/05/06 11:10:49;;;;;;;3.42;2.05;;;;;;;18.31;nan;102482.22;5055787;28;20095;-47
2022/05/06 11:13:17;;;;;;;3.05;2.08;;;;;;;18.37;nan;102489.31;5058312;28;20032;-47
2022/05/06 11:15:44;;;;;;;3.63;1.90;;;;;;;18.31;nan;102475.94;5056608;28;20485;-48
2022/05/06 11:18:10;;;;;;;3.00;2.28;;;;;;;18.23;nan;102482.66;5051560;28;20111;-47
2022/05/06 11:20:37;;;;;;;6.93;2.00;;;;;;;18.54;nan;102477.50;5053751;28;20545;-47
2022/05/06 11:23:08;;;;;;;4.25;2.20;;;;;;;18.85;nan;102473.97;5055754;28;20110;-47
2022/05/06 11:25:41;;;;;;;3.38;1.58;;;;;;;19.15;nan;102475.22;5059485;28;20102;-48
2022/05/06 11:28:20;;;;;;;1.83;1.40;;;;;;;19.22;nan;102475.81;5054497;28;20403;-46
2022/05/06 11:30:47;;;;;;;5.03;1.55;;;;;;;19.51;nan;102474.31;5053100;28;20889;-48
2022/05/06 11:33:39;;;;;;;3.55;1.90;;;;;;;19.54;nan;102472.97;5056020;28;20021;-47
2022/05/06 11:36:07;;;;;;;4.00;1.63;;;;;;;19.45;nan;102475.38;5050532;28;20035;-48
2022/05/06 11:38:38;;;;;;;1.75;1.58;;;;;;;19.50;nan;102471.84;5056049;28;20501;-47
2022/05/06 11:41:11;;;;;;;3.20;2.03;;;;;;;19.40;nan;102471.81;5054350;28;20036;-46
2022/05/06 11:43:38;;;;;;;2.85;1.55;;;;;;;19.53;nan;102472.13;5055038;28;20039;-47
2022/05/06 11:48:48;;;;;;;4.57;1.97;;;;;;;19.84;nan;102466.81;5055917;28;20168;-47
2022/05/06 11:51:27;;;;;;;4.13;2.17;;;;;;;20.30;nan;102461.47;5054629;28;20051;-47
2022/05/06 11:53:54;;;;;;;2.00;1.80;;;;;;;20.62;nan;102459.28;5055470;28;20268;-46
2022/05/06 11:56:28;;;;;;;3.15;2.10;;;;;;;20.64;nan;102448.91;5054487;28;20515;-48
2022/05/06 11:59:00;;;;;;;3.20;2.05;;;;;;;20.42;nan;102456.56;5050543;28;20024;-47
2022/05/06 12:01:34;;;;;;;4.68;2.42;;;;;;;20.45;nan;102451.38;5054342;28;20435;-46
2022/05/06 12:04:05;;;;;;;3.60;2.20;;;;;;;20.45;nan;102458.75;5058073;28;20109;-47
2022/05/06 12:06:37;;;;;;;2.67;2.10;;;;;;;20.38;nan;102452.72;5054323;28;20036;-48
2022/05/06 12:09:13;;;;;;;3.80;2.17;;;;;;;20.20;nan;102456.81;5052474;28;20098;-47
2022/05/06 12:11:40;;;;;;;3.92;2.05;;;;;;;20.00;nan;102454.06;5056828;28;20039;-46
2022/05/06 12:14:27;;;;;;;4.80;2.50;;;;;;;19.90;nan;102452.13;5049981;28;20057;-48
2022/05/06 12:16:57;;;;;;;4.22;2.13;;;;;;;20.01;nan;102455.69;5053973;28;20691;-47
2022/05/06 12:19:39;;;;;;;6.43;2.22;;;;;;;20.13;nan;102456.28;5052752;28;20052;-49